sensor_id;sensor_type;location;lat;lon;timestamp;P1;durP1;ratioP1;P2;durP2;ratioP2
39104;SDS011;46464;51.154;13.812;2023-04-24T00:00:32;7.13;;;3.75;;
39104;SDS011;46464;51.154;13.812;2023-04-24T00:02:58;5.07;;;4.00;;
39104;SDS011;46464;51.154;13.812;2023-04-24T00:05:25;7.28;;;4.15;;
39104;SDS011;46464;51.154;13.812;2023-04-24T00:07:51;5.70;;;3.85;;
39104;SDS011;46464;51.154;13.812;2023-04-24T00:12:45;8.52;;;3.92;;
39104;SDS011;46464;51.154;13.812;2023-04-24T00:15:11;5.15;;;4.30;;
39104;SDS011;46464;51.154;13.812;2023-04-24T00:17:38;5.40;;;3.78;;
39104;SDS011;46464;51.154;13.812;2023-04-24T00:20:04;6.43;;;4.43;;
39104;SDS011;46464;51.154;13.812;2023-04-24T00:22:33;5.72;;;4.20;;
39104;SDS011;46464;51.154;13.812;2023-04-24T00:24:59;8.10;;;4.13;;
39104;SDS011;46464;51.154;13.812;2023-04-24T00:27:25;5.32;;;4.13;;
39104;SDS011;46464;51.154;13.812;2023-04-24T00:29:52;7.35;;;4.85;;
39104;SDS011;46464;51.154;13.812;2023-04-24T00:32:18;5.53;;;4.07;;
39104;SDS011;46464;51.154;13.812;2023-04-24T00:34:45;5.60;;;4.10;;
39104;SDS011;46464;51.154;13.812;2023-04-24T00:37:11;7.03;;;4.20;;
39104;SDS011;46464;51.154;13.812;2023-04-24T00:39:38;6.97;;;3.60;;
39104;SDS011;46464;51.154;13.812;2023-04-24T00:42:05;5.82;;;3.65;;
39104;SDS011;46464;51.154;13.812;2023-04-24T00:44:32;5.80;;;4.32;;
39104;SDS011;46464;51.154;13.812;2023-04-24T00:47:00;6.85;;;3.92;;
39104;SDS011;46464;51.154;13.812;2023-04-24T00:49:27;5.88;;;4.10;;
39104;SDS011;46464;51.154;13.812;2023-04-24T00:51:54;5.05;;;3.60;;
39104;SDS011;46464;51.154;13.812;2023-04-24T00:54:20;6.38;;;4.60;;
39104;SDS011;46464;51.154;13.812;2023-04-24T00:56:47;7.30;;;4.60;;
39104;SDS011;46464;51.154;13.812;2023-04-24T00:59:16;5.05;;;4.35;;
39104;SDS011;46464;51.154;13.812;2023-04-24T01:01:44;7.55;;;4.82;;
39104;SDS011;46464;51.154;13.812;2023-04-24T01:04:12;5.97;;;4.25;;
39104;SDS011;46464;51.154;13.812;2023-04-24T01:09:05;5.78;;;4.00;;
39104;SDS011;46464;51.154;13.812;2023-04-24T01:11:36;5.57;;;4.22;;
39104;SDS011;46464;51.154;13.812;2023-04-24T01:14:03;6.35;;;4.55;;
39104;SDS011;46464;51.154;13.812;2023-04-24T01:16:30;5.18;;;4.38;;
39104;SDS011;46464;51.154;13.812;2023-04-24T01:18:56;5.18;;;3.80;;
39104;SDS011;46464;51.154;13.812;2023-04-24T01:21:23;5.68;;;4.18;;
39104;SDS011;46464;51.154;13.812;2023-04-24T01:23:53;5.10;;;3.90;;
39104;SDS011;46464;51.154;13.812;2023-04-24T01:26:21;4.70;;;3.72;;
39104;SDS011;46464;51.154;13.812;2023-04-24T01:28:48;5.28;;;4.45;;
39104;SDS011;46464;51.154;13.812;2023-04-24T01:31:15;4.10;;;3.42;;
39104;SDS011;46464;51.154;13.812;2023-04-24T01:33:42;5.13;;;3.55;;
39104;SDS011;46464;51.154;13.812;2023-04-24T01:36:09;5.75;;;4.38;;
39104;SDS011;46464;51.154;13.812;2023-04-24T01:38:37;4.45;;;3.55;;
39104;SDS011;46464;51.154;13.812;2023-04-24T01:41:04;7.03;;;3.97;;
39104;SDS011;46464;51.154;13.812;2023-04-24T01:43:30;5.97;;;4.82;;
39104;SDS011;46464;51.154;13.812;2023-04-24T01:45:58;4.18;;;3.28;;
39104;SDS011;46464;51.154;13.812;2023-04-24T01:48:24;4.85;;;4.03;;
39104;SDS011;46464;51.154;13.812;2023-04-24T01:50:51;5.72;;;3.95;;
39104;SDS011;46464;51.154;13.812;2023-04-24T01:53:18;5.32;;;3.85;;
39104;SDS011;46464;51.154;13.812;2023-04-24T01:55:44;6.18;;;3.92;;
39104;SDS011;46464;51.154;13.812;2023-04-24T01:58:11;5.20;;;3.97;;
39104;SDS011;46464;51.154;13.812;2023-04-24T02:00:37;6.65;;;4.15;;
39104;SDS011;46464;51.154;13.812;2023-04-24T02:03:04;5.00;;;4.20;;
39104;SDS011;46464;51.154;13.812;2023-04-24T02:05:31;5.55;;;4.28;;
39104;SDS011;46464;51.154;13.812;2023-04-24T02:07:57;7.00;;;4.35;;
39104;SDS011;46464;51.154;13.812;2023-04-24T02:10:23;5.25;;;4.10;;
39104;SDS011;46464;51.154;13.812;2023-04-24T02:12:51;9.25;;;4.57;;
39104;SDS011;46464;51.154;13.812;2023-04-24T02:15:17;6.80;;;4.38;;
39104;SDS011;46464;51.154;13.812;2023-04-24T02:17:44;7.43;;;4.05;;
39104;SDS011;46464;51.154;13.812;2023-04-24T02:20:11;5.05;;;3.78;;
39104;SDS011;46464;51.154;13.812;2023-04-24T02:22:37;6.10;;;4.82;;
39104;SDS011;46464;51.154;13.812;2023-04-24T02:25:04;5.88;;;3.97;;
39104;SDS011;46464;51.154;13.812;2023-04-24T02:27:31;5.53;;;3.00;;
39104;SDS011;46464;51.154;13.812;2023-04-24T02:29:57;4.10;;;3.03;;
39104;SDS011;46464;51.154;13.812;2023-04-24T02:32:24;5.90;;;2.92;;
39104;SDS011;46464;51.154;13.812;2023-04-24T02:34:50;4.57;;;3.22;;
39104;SDS011;46464;51.154;13.812;2023-04-24T02:37:16;4.45;;;2.50;;
39104;SDS011;46464;51.154;13.812;2023-04-24T02:39:43;4.43;;;3.08;;
39104;SDS011;46464;51.154;13.812;2023-04-24T02:42:10;3.85;;;2.65;;
39104;SDS011;46464;51.154;13.812;2023-04-24T02:44:36;5.20;;;3.30;;
39104;SDS011;46464;51.154;13.812;2023-04-24T02:47:02;6.78;;;3.15;;
39104;SDS011;46464;51.154;13.812;2023-04-24T02:51:56;3.90;;;3.28;;
39104;SDS011;46464;51.154;13.812;2023-04-24T02:54:22;4.13;;;2.65;;
39104;SDS011;46464;51.154;13.812;2023-04-24T02:56:48;4.90;;;2.67;;
39104;SDS011;46464;51.154;13.812;2023-04-24T02:59:15;3.63;;;2.30;;
39104;SDS011;46464;51.154;13.812;2023-04-24T03:04:09;2.95;;;2.10;;
39104;SDS011;46464;51.154;13.812;2023-04-24T03:06:36;3.78;;;2.15;;
39104;SDS011;46464;51.154;13.812;2023-04-24T03:09:03;4.15;;;2.50;;
39104;SDS011;46464;51.154;13.812;2023-04-24T03:11:29;3.38;;;2.25;;
39104;SDS011;46464;51.154;13.812;2023-04-24T03:13:56;6.93;;;2.65;;
39104;SDS011;46464;51.154;13.812;2023-04-24T03:16:22;5.53;;;2.72;;
39104;SDS011;46464;51.154;13.812;2023-04-24T03:18:49;3.83;;;2.70;;
39104;SDS011;46464;51.154;13.812;2023-04-24T03:21:15;3.53;;;2.75;;
39104;SDS011;46464;51.154;13.812;2023-04-24T03:23:42;4.05;;;2.40;;
39104;SDS011;46464;51.154;13.812;2023-04-24T03:26:08;4.10;;;3.25;;
39104;SDS011;46464;51.154;13.812;2023-04-24T03:28:35;5.20;;;2.80;;
39104;SDS011;46464;51.154;13.812;2023-04-24T03:31:02;7.80;;;3.03;;
39104;SDS011;46464;51.154;13.812;2023-04-24T03:33:29;5.57;;;3.35;;
39104;SDS011;46464;51.154;13.812;2023-04-24T03:35:56;6.35;;;2.95;;
39104;SDS011;46464;51.154;13.812;2023-04-24T03:38:22;5.90;;;2.80;;
39104;SDS011;46464;51.154;13.812;2023-04-24T03:40:48;3.05;;;2.20;;
39104;SDS011;46464;51.154;13.812;2023-04-24T03:43:15;4.55;;;2.47;;
39104;SDS011;46464;51.154;13.812;2023-04-24T03:45:42;3.05;;;2.30;;
39104;SDS011;46464;51.154;13.812;2023-04-24T03:48:08;3.28;;;2.15;;
39104;SDS011;46464;51.154;13.812;2023-04-24T03:50:35;4.95;;;1.70;;
39104;SDS011;46464;51.154;13.812;2023-04-24T03:53:01;3.63;;;1.70;;
39104;SDS011;46464;51.154;13.812;2023-04-24T03:55:28;2.88;;;1.48;;
39104;SDS011;46464;51.154;13.812;2023-04-24T03:57:54;3.67;;;2.40;;
39104;SDS011;46464;51.154;13.812;2023-04-24T04:00:21;5.47;;;2.30;;
39104;SDS011;46464;51.154;13.812;2023-04-24T04:02:47;8.05;;;5.07;;
39104;SDS011;46464;51.154;13.812;2023-04-24T04:05:14;5.57;;;3.40;;
39104;SDS011;46464;51.154;13.812;2023-04-24T04:07:40;3.78;;;2.10;;
39104;SDS011;46464;51.154;13.812;2023-04-24T04:10:07;3.78;;;1.90;;
39104;SDS011;46464;51.154;13.812;2023-04-24T04:12:33;4.80;;;1.98;;
39104;SDS011;46464;51.154;13.812;2023-04-24T04:15:00;2.42;;;1.20;;
39104;SDS011;46464;51.154;13.812;2023-04-24T04:17:26;1.55;;;1.10;;
39104;SDS011;46464;51.154;13.812;2023-04-24T04:19:53;2.65;;;1.42;;
39104;SDS011;46464;51.154;13.812;2023-04-24T04:22:19;2.92;;;1.60;;
39104;SDS011;46464;51.154;13.812;2023-04-24T04:24:46;1.30;;;0.80;;
39104;SDS011;46464;51.154;13.812;2023-04-24T04:27:13;3.03;;;1.10;;
39104;SDS011;46464;51.154;13.812;2023-04-24T04:29:39;2.70;;;1.25;;
39104;SDS011;46464;51.154;13.812;2023-04-24T04:32:06;5.55;;;1.58;;
39104;SDS011;46464;51.154;13.812;2023-04-24T04:34:33;1.67;;;0.90;;
39104;SDS011;46464;51.154;13.812;2023-04-24T04:36:59;2.35;;;1.08;;
39104;SDS011;46464;51.154;13.812;2023-04-24T04:39:27;2.22;;;1.13;;
39104;SDS011;46464;51.154;13.812;2023-04-24T04:41:54;3.35;;;1.00;;
39104;SDS011;46464;51.154;13.812;2023-04-24T04:44:21;2.55;;;1.00;;
39104;SDS011;46464;51.154;13.812;2023-04-24T04:46:47;4.88;;;1.20;;
39104;SDS011;46464;51.154;13.812;2023-04-24T04:49:14;3.08;;;1.20;;
39104;SDS011;46464;51.154;13.812;2023-04-24T04:51:42;3.38;;;1.20;;
39104;SDS011;46464;51.154;13.812;2023-04-24T04:54:09;3.47;;;1.10;;
39104;SDS011;46464;51.154;13.812;2023-04-24T04:56:35;2.10;;;1.20;;
39104;SDS011;46464;51.154;13.812;2023-04-24T04:59:02;1.92;;;1.13;;
39104;SDS011;46464;51.154;13.812;2023-04-24T05:01:28;2.53;;;1.30;;
39104;SDS011;46464;51.154;13.812;2023-04-24T05:03:55;4.22;;;1.23;;
39104;SDS011;46464;51.154;13.812;2023-04-24T05:06:22;2.95;;;1.42;;
39104;SDS011;46464;51.154;13.812;2023-04-24T05:08:49;2.70;;;1.30;;
39104;SDS011;46464;51.154;13.812;2023-04-24T05:11:17;4.32;;;1.60;;
39104;SDS011;46464;51.154;13.812;2023-04-24T05:13:43;2.50;;;1.30;;
39104;SDS011;46464;51.154;13.812;2023-04-24T05:16:10;2.88;;;1.42;;
39104;SDS011;46464;51.154;13.812;2023-04-24T05:18:36;2.03;;;1.02;;
39104;SDS011;46464;51.154;13.812;2023-04-24T05:21:02;5.10;;;1.30;;
39104;SDS011;46464;51.154;13.812;2023-04-24T05:23:29;3.22;;;0.90;;
39104;SDS011;46464;51.154;13.812;2023-04-24T05:25:56;2.80;;;1.08;;
39104;SDS011;46464;51.154;13.812;2023-04-24T05:28:22;2.78;;;0.90;;
39104;SDS011;46464;51.154;13.812;2023-04-24T05:30:49;2.08;;;1.00;;
39104;SDS011;46464;51.154;13.812;2023-04-24T05:33:15;4.93;;;1.30;;
39104;SDS011;46464;51.154;13.812;2023-04-24T05:35:42;5.47;;;1.10;;
39104;SDS011;46464;51.154;13.812;2023-04-24T05:38:12;5.35;;;1.70;;
39104;SDS011;46464;51.154;13.812;2023-04-24T05:45:32;4.60;;;1.00;;
39104;SDS011;46464;51.154;13.812;2023-04-24T05:48:01;3.95;;;1.10;;
39104;SDS011;46464;51.154;13.812;2023-04-24T05:50:28;2.10;;;0.88;;
39104;SDS011;46464;51.154;13.812;2023-04-24T05:52:55;4.10;;;1.10;;
39104;SDS011;46464;51.154;13.812;2023-04-24T05:55:24;2.35;;;1.00;;
39104;SDS011;46464;51.154;13.812;2023-04-24T05:57:51;3.65;;;0.90;;
39104;SDS011;46464;51.154;13.812;2023-04-24T06:00:18;1.92;;;1.00;;
39104;SDS011;46464;51.154;13.812;2023-04-24T06:02:46;1.70;;;0.70;;
39104;SDS011;46464;51.154;13.812;2023-04-24T06:05:13;2.50;;;0.85;;
39104;SDS011;46464;51.154;13.812;2023-04-24T06:07:41;3.30;;;1.10;;
39104;SDS011;46464;51.154;13.812;2023-04-24T06:10:08;3.22;;;1.10;;
39104;SDS011;46464;51.154;13.812;2023-04-24T06:12:35;1.98;;;0.85;;
39104;SDS011;46464;51.154;13.812;2023-04-24T06:15:03;3.55;;;0.90;;
39104;SDS011;46464;51.154;13.812;2023-04-24T06:17:30;2.42;;;0.88;;
39104;SDS011;46464;51.154;13.812;2023-04-24T06:19:57;2.35;;;1.00;;
39104;SDS011;46464;51.154;13.812;2023-04-24T06:22:23;3.38;;;1.15;;
39104;SDS011;46464;51.154;13.812;2023-04-24T06:24:50;3.83;;;1.08;;
39104;SDS011;46464;51.154;13.812;2023-04-24T06:27:16;3.45;;;1.25;;
39104;SDS011;46464;51.154;13.812;2023-04-24T06:29:43;2.22;;;1.00;;
39104;SDS011;46464;51.154;13.812;2023-04-24T06:32:10;1.50;;;0.70;;
39104;SDS011;46464;51.154;13.812;2023-04-24T06:34:36;3.45;;;0.95;;
39104;SDS011;46464;51.154;13.812;2023-04-24T06:37:03;1.52;;;0.68;;
39104;SDS011;46464;51.154;13.812;2023-04-24T06:39:29;2.00;;;0.70;;
39104;SDS011;46464;51.154;13.812;2023-04-24T06:41:56;2.45;;;0.70;;
39104;SDS011;46464;51.154;13.812;2023-04-24T06:44:22;2.53;;;0.70;;
39104;SDS011;46464;51.154;13.812;2023-04-24T06:46:49;3.55;;;0.80;;
39104;SDS011;46464;51.154;13.812;2023-04-24T06:49:15;1.63;;;0.85;;
39104;SDS011;46464;51.154;13.812;2023-04-24T06:51:42;3.42;;;0.80;;
39104;SDS011;46464;51.154;13.812;2023-04-24T06:54:09;2.38;;;0.88;;
39104;SDS011;46464;51.154;13.812;2023-04-24T06:56:35;2.08;;;0.70;;
39104;SDS011;46464;51.154;13.812;2023-04-24T06:59:02;2.13;;;0.98;;
39104;SDS011;46464;51.154;13.812;2023-04-24T07:01:28;2.42;;;0.90;;
39104;SDS011;46464;51.154;13.812;2023-04-24T07:03:55;2.33;;;0.80;;
39104;SDS011;46464;51.154;13.812;2023-04-24T07:06:21;1.10;;;0.57;;
39104;SDS011;46464;51.154;13.812;2023-04-24T07:08:49;4.75;;;1.52;;
39104;SDS011;46464;51.154;13.812;2023-04-24T07:11:16;3.13;;;0.70;;
39104;SDS011;46464;51.154;13.812;2023-04-24T07:13:42;2.88;;;0.95;;
39104;SDS011;46464;51.154;13.812;2023-04-24T07:16:10;2.33;;;0.93;;
39104;SDS011;46464;51.154;13.812;2023-04-24T07:18:37;3.10;;;1.17;;
39104;SDS011;46464;51.154;13.812;2023-04-24T07:21:05;4.47;;;0.90;;
39104;SDS011;46464;51.154;13.812;2023-04-24T07:23:33;1.88;;;0.60;;
39104;SDS011;46464;51.154;13.812;2023-04-24T07:25:59;2.40;;;0.65;;
39104;SDS011;46464;51.154;13.812;2023-04-24T07:28:26;1.90;;;0.85;;
39104;SDS011;46464;51.154;13.812;2023-04-24T07:30:52;1.73;;;0.50;;
39104;SDS011;46464;51.154;13.812;2023-04-24T07:33:20;1.98;;;0.50;;
39104;SDS011;46464;51.154;13.812;2023-04-24T07:35:46;1.48;;;0.60;;
39104;SDS011;46464;51.154;13.812;2023-04-24T07:40:40;4.80;;;0.77;;
39104;SDS011;46464;51.154;13.812;2023-04-24T07:43:06;3.65;;;0.60;;
39104;SDS011;46464;51.154;13.812;2023-04-24T07:45:33;3.22;;;0.50;;
39104;SDS011;46464;51.154;13.812;2023-04-24T07:48:03;2.17;;;0.70;;
39104;SDS011;46464;51.154;13.812;2023-04-24T07:50:30;2.17;;;0.50;;
39104;SDS011;46464;51.154;13.812;2023-04-24T07:52:57;2.50;;;0.60;;
39104;SDS011;46464;51.154;13.812;2023-04-24T07:55:23;1.83;;;0.63;;
39104;SDS011;46464;51.154;13.812;2023-04-24T07:57:53;1.55;;;0.60;;
39104;SDS011;46464;51.154;13.812;2023-04-24T08:00:20;2.05;;;0.63;;
39104;SDS011;46464;51.154;13.812;2023-04-24T08:05:14;2.90;;;0.70;;
39104;SDS011;46464;51.154;13.812;2023-04-24T08:07:40;3.08;;;0.60;;
39104;SDS011;46464;51.154;13.812;2023-04-24T08:10:11;3.65;;;0.63;;
39104;SDS011;46464;51.154;13.812;2023-04-24T08:12:38;2.35;;;0.75;;
39104;SDS011;46464;51.154;13.812;2023-04-24T08:15:05;4.10;;;0.68;;
39104;SDS011;46464;51.154;13.812;2023-04-24T08:17:33;3.22;;;0.90;;
39104;SDS011;46464;51.154;13.812;2023-04-24T08:20:01;1.13;;;0.57;;
39104;SDS011;46464;51.154;13.812;2023-04-24T08:22:30;2.20;;;0.70;;
39104;SDS011;46464;51.154;13.812;2023-04-24T08:24:57;1.95;;;0.60;;
39104;SDS011;46464;51.154;13.812;2023-04-24T08:27:26;1.52;;;0.77;;
39104;SDS011;46464;51.154;13.812;2023-04-24T08:29:53;1.35;;;0.60;;
39104;SDS011;46464;51.154;13.812;2023-04-24T08:34:46;2.90;;;0.93;;
39104;SDS011;46464;51.154;13.812;2023-04-24T08:37:15;2.42;;;0.73;;
39104;SDS011;46464;51.154;13.812;2023-04-24T08:39:41;1.40;;;0.45;;
39104;SDS011;46464;51.154;13.812;2023-04-24T08:44:35;3.28;;;0.68;;
39104;SDS011;46464;51.154;13.812;2023-04-24T08:49:29;2.53;;;0.95;;
39104;SDS011;46464;51.154;13.812;2023-04-24T08:56:49;3.50;;;0.80;;
39104;SDS011;46464;51.154;13.812;2023-04-24T08:59:16;2.78;;;0.60;;
39104;SDS011;46464;51.154;13.812;2023-04-24T09:01:44;1.85;;;0.60;;
39104;SDS011;46464;51.154;13.812;2023-04-24T09:04:12;2.17;;;0.50;;
39104;SDS011;46464;51.154;13.812;2023-04-24T09:06:42;3.10;;;0.68;;
39104;SDS011;46464;51.154;13.812;2023-04-24T09:09:08;2.70;;;0.60;;
39104;SDS011;46464;51.154;13.812;2023-04-24T09:11:37;3.08;;;0.50;;
39104;SDS011;46464;51.154;13.812;2023-04-24T09:16:31;2.00;;;0.60;;
39104;SDS011;46464;51.154;13.812;2023-04-24T09:19:02;2.13;;;0.60;;
39104;SDS011;46464;51.154;13.812;2023-04-24T09:21:33;1.55;;;0.50;;
39104;SDS011;46464;51.154;13.812;2023-04-24T09:24:02;2.17;;;0.63;;
39104;SDS011;46464;51.154;13.812;2023-04-24T09:26:31;3.13;;;0.63;;
39104;SDS011;46464;51.154;13.812;2023-04-24T09:28:58;1.40;;;0.38;;
39104;SDS011;46464;51.154;13.812;2023-04-24T09:31:26;3.47;;;0.77;;
39104;SDS011;46464;51.154;13.812;2023-04-24T09:36:31;1.23;;;0.50;;
39104;SDS011;46464;51.154;13.812;2023-04-24T09:39:03;3.28;;;0.70;;
39104;SDS011;46464;51.154;13.812;2023-04-24T09:41:34;1.67;;;0.50;;
39104;SDS011;46464;51.154;13.812;2023-04-24T09:44:10;2.88;;;0.57;;
39104;SDS011;46464;51.154;13.812;2023-04-24T09:46:56;2.13;;;0.68;;
39104;SDS011;46464;51.154;13.812;2023-04-24T09:49:25;1.45;;;0.60;;
39104;SDS011;46464;51.154;13.812;2023-04-24T09:52:03;2.22;;;0.60;;
39104;SDS011;46464;51.154;13.812;2023-04-24T09:54:31;1.83;;;0.70;;
39104;SDS011;46464;51.154;13.812;2023-04-24T09:56:57;2.15;;;0.70;;
39104;SDS011;46464;51.154;13.812;2023-04-24T09:59:26;3.65;;;0.75;;
39104;SDS011;46464;51.154;13.812;2023-04-24T10:01:52;1.00;;;0.50;;
39104;SDS011;46464;51.154;13.812;2023-04-24T10:04:19;3.30;;;0.60;;
39104;SDS011;46464;51.154;13.812;2023-04-24T10:06:49;2.05;;;0.60;;
39104;SDS011;46464;51.154;13.812;2023-04-24T10:09:18;2.50;;;0.47;;
39104;SDS011;46464;51.154;13.812;2023-04-24T10:11:46;2.80;;;0.50;;
39104;SDS011;46464;51.154;13.812;2023-04-24T10:14:15;6.32;;;0.65;;
39104;SDS011;46464;51.154;13.812;2023-04-24T10:16:43;1.33;;;0.70;;
39104;SDS011;46464;51.154;13.812;2023-04-24T10:19:13;1.70;;;0.40;;
39104;SDS011;46464;51.154;13.812;2023-04-24T10:21:41;3.38;;;0.70;;
39104;SDS011;46464;51.154;13.812;2023-04-24T10:24:09;1.50;;;0.50;;
39104;SDS011;46464;51.154;13.812;2023-04-24T10:26:36;2.25;;;0.65;;
39104;SDS011;46464;51.154;13.812;2023-04-24T10:29:03;4.57;;;0.75;;
39104;SDS011;46464;51.154;13.812;2023-04-24T10:31:36;0.60;;;0.43;;
39104;SDS011;46464;51.154;13.812;2023-04-24T10:34:04;1.35;;;0.40;;
39104;SDS011;46464;51.154;13.812;2023-04-24T10:36:32;3.15;;;0.40;;
39104;SDS011;46464;51.154;13.812;2023-04-24T10:39:01;2.90;;;0.80;;
39104;SDS011;46464;51.154;13.812;2023-04-24T10:41:30;2.63;;;1.30;;
39104;SDS011;46464;51.154;13.812;2023-04-24T10:46:42;5.55;;;0.77;;
39104;SDS011;46464;51.154;13.812;2023-04-24T10:49:10;2.92;;;0.55;;
39104;SDS011;46464;51.154;13.812;2023-04-24T10:59:46;2.83;;;0.50;;
39104;SDS011;46464;51.154;13.812;2023-04-24T11:02:14;1.15;;;0.50;;
39104;SDS011;46464;51.154;13.812;2023-04-24T11:07:11;2.40;;;0.30;;
39104;SDS011;46464;51.154;13.812;2023-04-24T11:09:38;0.88;;;0.38;;
39104;SDS011;46464;51.154;13.812;2023-04-24T11:12:10;1.50;;;0.52;;
39104;SDS011;46464;51.154;13.812;2023-04-24T11:17:35;2.72;;;0.73;;
39104;SDS011;46464;51.154;13.812;2023-04-24T11:20:08;0.90;;;0.40;;
39104;SDS011;46464;51.154;13.812;2023-04-24T11:22:53;1.95;;;0.50;;
39104;SDS011;46464;51.154;13.812;2023-04-24T11:25:21;2.90;;;0.90;;
39104;SDS011;46464;51.154;13.812;2023-04-24T11:27:52;2.75;;;0.60;;
39104;SDS011;46464;51.154;13.812;2023-04-24T11:30:30;1.77;;;0.50;;
39104;SDS011;46464;51.154;13.812;2023-04-24T11:33:02;2.15;;;0.70;;
39104;SDS011;46464;51.154;13.812;2023-04-24T11:35:30;1.95;;;0.50;;
39104;SDS011;46464;51.154;13.812;2023-04-24T11:38:03;1.08;;;0.40;;
39104;SDS011;46464;51.154;13.812;2023-04-24T11:40:34;2.25;;;0.73;;
39104;SDS011;46464;51.154;13.812;2023-04-24T11:43:00;2.17;;;0.60;;
39104;SDS011;46464;51.154;13.812;2023-04-24T11:45:28;17.73;;;1.80;;
39104;SDS011;46464;51.154;13.812;2023-04-24T11:47:56;1.90;;;0.80;;
39104;SDS011;46464;51.154;13.812;2023-04-24T11:50:25;2.72;;;0.40;;
39104;SDS011;46464;51.154;13.812;2023-04-24T11:52:54;2.17;;;0.52;;
39104;SDS011;46464;51.154;13.812;2023-04-24T11:57:50;1.27;;;0.43;;
39104;SDS011;46464;51.154;13.812;2023-04-24T12:00:20;1.13;;;0.50;;
39104;SDS011;46464;51.154;13.812;2023-04-24T12:02:48;1.45;;;0.47;;
39104;SDS011;46464;51.154;13.812;2023-04-24T12:05:25;1.60;;;0.75;;
39104;SDS011;46464;51.154;13.812;2023-04-24T12:07:53;0.93;;;0.40;;
39104;SDS011;46464;51.154;13.812;2023-04-24T12:10:20;1.52;;;0.60;;
39104;SDS011;46464;51.154;13.812;2023-04-24T12:12:47;1.67;;;0.50;;
39104;SDS011;46464;51.154;13.812;2023-04-24T12:15:17;1.58;;;0.57;;
39104;SDS011;46464;51.154;13.812;2023-04-24T12:17:45;2.15;;;0.50;;
39104;SDS011;46464;51.154;13.812;2023-04-24T12:20:12;2.88;;;0.50;;
39104;SDS011;46464;51.154;13.812;2023-04-24T12:22:46;1.60;;;0.45;;
39104;SDS011;46464;51.154;13.812;2023-04-24T12:25:18;3.30;;;0.90;;
39104;SDS011;46464;51.154;13.812;2023-04-24T12:27:46;4.13;;;0.90;;
39104;SDS011;46464;51.154;13.812;2023-04-24T12:30:17;3.30;;;0.90;;
39104;SDS011;46464;51.154;13.812;2023-04-24T12:32:45;2.00;;;0.77;;
39104;SDS011;46464;51.154;13.812;2023-04-24T12:35:18;2.85;;;0.73;;
39104;SDS011;46464;51.154;13.812;2023-04-24T12:37:46;2.20;;;0.70;;
39104;SDS011;46464;51.154;13.812;2023-04-24T12:40:13;0.88;;;0.47;;
39104;SDS011;46464;51.154;13.812;2023-04-24T12:42:50;1.80;;;1.17;;
39104;SDS011;46464;51.154;13.812;2023-04-24T12:45:18;1.80;;;0.60;;
39104;SDS011;46464;51.154;13.812;2023-04-24T12:47:45;3.05;;;0.50;;
39104;SDS011;46464;51.154;13.812;2023-04-24T12:50:13;1.60;;;0.50;;
39104;SDS011;46464;51.154;13.812;2023-04-24T12:52:41;2.28;;;0.90;;
39104;SDS011;46464;51.154;13.812;2023-04-24T12:55:08;1.58;;;0.52;;
39104;SDS011;46464;51.154;13.812;2023-04-24T13:00:03;1.65;;;0.43;;
39104;SDS011;46464;51.154;13.812;2023-04-24T13:02:32;0.60;;;0.40;;
39104;SDS011;46464;51.154;13.812;2023-04-24T13:05:00;3.20;;;0.60;;
39104;SDS011;46464;51.154;13.812;2023-04-24T13:07:27;1.33;;;1.00;;
39104;SDS011;46464;51.154;13.812;2023-04-24T13:09:54;4.13;;;0.52;;
39104;SDS011;46464;51.154;13.812;2023-04-24T13:12:22;1.35;;;0.60;;
39104;SDS011;46464;51.154;13.812;2023-04-24T13:14:50;2.67;;;0.77;;
39104;SDS011;46464;51.154;13.812;2023-04-24T13:17:16;6.47;;;0.63;;
39104;SDS011;46464;51.154;13.812;2023-04-24T13:19:43;3.58;;;0.93;;
39104;SDS011;46464;51.154;13.812;2023-04-24T13:22:10;2.30;;;0.65;;
39104;SDS011;46464;51.154;13.812;2023-04-24T13:24:38;1.02;;;0.50;;
39104;SDS011;46464;51.154;13.812;2023-04-24T13:27:07;1.77;;;0.60;;
39104;SDS011;46464;51.154;13.812;2023-04-24T13:29:34;3.42;;;0.90;;
39104;SDS011;46464;51.154;13.812;2023-04-24T13:32:01;1.23;;;0.50;;
39104;SDS011;46464;51.154;13.812;2023-04-24T13:34:28;3.00;;;0.80;;
39104;SDS011;46464;51.154;13.812;2023-04-24T13:36:55;6.47;;;0.90;;
39104;SDS011;46464;51.154;13.812;2023-04-24T13:39:23;1.95;;;0.73;;
39104;SDS011;46464;51.154;13.812;2023-04-24T13:41:50;1.58;;;0.60;;
39104;SDS011;46464;51.154;13.812;2023-04-24T13:44:17;1.35;;;0.60;;
39104;SDS011;46464;51.154;13.812;2023-04-24T13:46:45;1.55;;;0.60;;
39104;SDS011;46464;51.154;13.812;2023-04-24T13:49:13;1.77;;;0.60;;
39104;SDS011;46464;51.154;13.812;2023-04-24T13:51:40;1.05;;;0.60;;
39104;SDS011;46464;51.154;13.812;2023-04-24T13:54:07;1.20;;;0.60;;
39104;SDS011;46464;51.154;13.812;2023-04-24T13:56:34;4.95;;;0.60;;
39104;SDS011;46464;51.154;13.812;2023-04-24T13:59:00;2.92;;;1.00;;
39104;SDS011;46464;51.154;13.812;2023-04-24T14:01:27;2.53;;;0.50;;
39104;SDS011;46464;51.154;13.812;2023-04-24T14:03:54;0.82;;;0.50;;
39104;SDS011;46464;51.154;13.812;2023-04-24T14:06:22;2.42;;;0.70;;
39104;SDS011;46464;51.154;13.812;2023-04-24T14:08:49;1.23;;;0.50;;
39104;SDS011;46464;51.154;13.812;2023-04-24T14:11:16;2.17;;;0.80;;
39104;SDS011;46464;51.154;13.812;2023-04-24T14:13:44;1.05;;;0.50;;
39104;SDS011;46464;51.154;13.812;2023-04-24T14:16:11;1.02;;;0.60;;
39104;SDS011;46464;51.154;13.812;2023-04-24T14:18:40;3.03;;;0.60;;
39104;SDS011;46464;51.154;13.812;2023-04-24T14:21:07;1.95;;;0.80;;
39104;SDS011;46464;51.154;13.812;2023-04-24T14:23:33;4.57;;;0.60;;
39104;SDS011;46464;51.154;13.812;2023-04-24T14:26:00;0.82;;;0.50;;
39104;SDS011;46464;51.154;13.812;2023-04-24T14:28:26;3.58;;;0.68;;
39104;SDS011;46464;51.154;13.812;2023-04-24T14:30:53;1.30;;;0.57;;
39104;SDS011;46464;51.154;13.812;2023-04-24T14:33:19;1.38;;;0.75;;
39104;SDS011;46464;51.154;13.812;2023-04-24T14:38:13;1.20;;;0.60;;
39104;SDS011;46464;51.154;13.812;2023-04-24T14:40:41;1.42;;;0.70;;
39104;SDS011;46464;51.154;13.812;2023-04-24T14:43:11;1.33;;;0.50;;
39104;SDS011;46464;51.154;13.812;2023-04-24T14:45:37;1.63;;;0.68;;
39104;SDS011;46464;51.154;13.812;2023-04-24T14:48:04;1.95;;;0.80;;
39104;SDS011;46464;51.154;13.812;2023-04-24T14:50:35;2.80;;;0.88;;
39104;SDS011;46464;51.154;13.812;2023-04-24T14:53:02;3.00;;;0.80;;
39104;SDS011;46464;51.154;13.812;2023-04-24T14:55:28;1.17;;;0.50;;
39104;SDS011;46464;51.154;13.812;2023-04-24T14:57:55;1.25;;;0.60;;
39104;SDS011;46464;51.154;13.812;2023-04-24T15:00:21;1.95;;;0.80;;
39104;SDS011;46464;51.154;13.812;2023-04-24T15:02:50;2.90;;;0.65;;
39104;SDS011;46464;51.154;13.812;2023-04-24T15:05:17;1.30;;;0.75;;
39104;SDS011;46464;51.154;13.812;2023-04-24T15:07:44;1.85;;;0.80;;
39104;SDS011;46464;51.154;13.812;2023-04-24T15:10:11;1.75;;;0.73;;
39104;SDS011;46464;51.154;13.812;2023-04-24T15:12:38;4.43;;;0.77;;
39104;SDS011;46464;51.154;13.812;2023-04-24T15:15:04;2.30;;;0.88;;
39104;SDS011;46464;51.154;13.812;2023-04-24T15:17:31;3.63;;;0.88;;
39104;SDS011;46464;51.154;13.812;2023-04-24T15:19:58;2.47;;;0.75;;
39104;SDS011;46464;51.154;13.812;2023-04-24T15:22:27;2.38;;;0.70;;
39104;SDS011;46464;51.154;13.812;2023-04-24T15:24:53;2.13;;;1.10;;
39104;SDS011;46464;51.154;13.812;2023-04-24T15:27:20;1.65;;;0.80;;
39104;SDS011;46464;51.154;13.812;2023-04-24T15:29:46;2.65;;;0.90;;
39104;SDS011;46464;51.154;13.812;2023-04-24T15:32:13;2.53;;;0.85;;
39104;SDS011;46464;51.154;13.812;2023-04-24T15:34:39;2.92;;;0.82;;